Terminal Aerodrome Forecast
Issued by NWS

Home | Current Version | Previous Version | Text Only | Print | Product List | Glossary On
Versions: 1 2 3 4 5 6 7 8 9 10 11 12
000
FTUS43 KDLH 240524
TAFHYR
TAF
KHYR 240524Z 2406/2506 00000KT P6SM SCT200
     FM240900 VRB03KT P6SM SCT070 BKN100
     FM241400 02008KT P6SM SCT040 BKN080
     FM242000 36008G14KT P6SM SCT080
     FM250200 04003KT P6SM FEW080=

USA.gov is the U.S. government's official web portal to all federal, state and local government web resources and services.